Time;durP1;ratioP1;P1;durP2;ratioP2;P2;SDS_P1;SDS_P2;PMS_P1;PMS_P2;Temp;Humidity;BMP_temperature;BMP_pressure;BME280_temperature;BME280_humidity;BME280_pressure;Samples;Min_cycle;Max_cycle;Signal;HPM_P1;HPM_P2
2024/01/17 00:01:58;;;;;;;24.57;10.33;;;-0.90;99.90;;;;;;5036735;28;20252;-45
2024/01/17 00:04:27;;;;;;;18.40;10.63;;;-0.90;99.90;;;;;;5044958;28;20878;-46
2024/01/17 00:06:55;;;;;;;16.33;10.53;;;-1.00;99.90;;;;;;5037196;28;20237;-48
2024/01/17 00:09:22;;;;;;;15.63;9.87;;;-1.00;99.90;;;;;;5037072;28;20855;-55
2024/01/17 00:11:50;;;;;;;14.50;9.90;;;-1.00;99.90;;;;;;5038408;28;20628;-47
2024/01/17 00:14:17;;;;;;;17.90;9.93;;;-1.00;99.90;;;;;;5004352;28;20208;-49
2024/01/17 00:16:44;;;;;;;15.70;10.17;;;-1.00;99.90;;;;;;5041121;28;20185;-48
2024/01/17 00:19:11;;;;;;;19.57;10.33;;;-1.00;99.90;;;;;;5038864;28;20206;-47
2024/01/17 00:21:39;;;;;;;15.27;9.70;;;-1.00;99.90;;;;;;5037428;28;20205;-47
2024/01/17 00:24:06;;;;;;;14.23;10.27;;;-1.00;99.90;;;;;;5040446;28;20193;-47
2024/01/17 00:26:32;;;;;;;17.63;10.83;;;-1.10;99.90;;;;;;5041968;28;20283;-49
2024/01/17 00:28:59;;;;;;;14.23;9.37;;;-1.00;99.90;;;;;;5011658;28;20222;-46
2024/01/17 00:31:26;;;;;;;12.00;9.20;;;-1.10;99.90;;;;;;5041271;28;20201;-47
2024/01/17 00:33:53;;;;;;;15.53;10.63;;;-1.10;99.90;;;;;;5039248;28;20202;-45
2024/01/17 00:36:20;;;;;;;12.97;9.37;;;-1.10;99.90;;;;;;5026210;28;20195;-47
2024/01/17 00:38:48;;;;;;;17.73;9.57;;;-1.10;99.90;;;;;;5038905;28;20297;-47
2024/01/17 00:41:15;;;;;;;15.30;9.70;;;-1.10;99.90;;;;;;5040113;28;20242;-49
2024/01/17 00:43:41;;;;;;;13.10;10.37;;;-1.10;99.90;;;;;;5036504;28;20641;-48
2024/01/17 00:46:08;;;;;;;14.50;10.10;;;-1.10;99.90;;;;;;5025084;28;20208;-47
2024/01/17 00:48:35;;;;;;;16.50;10.67;;;-1.10;99.90;;;;;;5042372;28;20773;-49
2024/01/17 00:51:02;;;;;;;16.73;10.03;;;-1.10;99.90;;;;;;5038140;28;20197;-49
2024/01/17 00:53:30;;;;;;;14.77;9.60;;;-1.10;99.90;;;;;;5037365;28;20276;-48
2024/01/17 00:55:58;;;;;;;16.60;9.90;;;-1.10;99.90;;;;;;5041495;28;20196;-49
2024/01/17 00:58:25;;;;;;;16.60;10.30;;;-1.10;99.90;;;;;;5049024;28;20226;-47
2024/01/17 01:00:52;;;;;;;13.23;9.93;;;-1.00;99.90;;;;;;5011398;28;20445;-49
2024/01/17 01:03:19;;;;;;;15.47;9.27;;;-1.00;99.90;;;;;;5042626;28;20203;-48
2024/01/17 01:05:46;;;;;;;13.33;10.43;;;-1.00;99.90;;;;;;5050349;28;20233;-48
2024/01/17 01:08:13;;;;;;;15.13;9.43;;;-1.00;99.90;;;;;;5040546;28;20217;-47
2024/01/17 01:10:40;;;;;;;9.60;8.40;;;-0.90;99.90;;;;;;5033699;28;20305;-49
2024/01/17 01:13:08;;;;;;;11.60;8.97;;;-0.90;99.90;;;;;;5034022;28;20298;-47
2024/01/17 01:15:35;;;;;;;15.07;9.33;;;-0.90;99.90;;;;;;5008118;28;20215;-46
2024/01/17 01:18:02;;;;;;;12.57;9.50;;;-0.90;99.90;;;;;;5034382;28;20277;-47
2024/01/17 01:20:29;;;;;;;13.93;10.13;;;-0.90;99.90;;;;;;5037065;28;20718;-48
2024/01/17 01:22:56;;;;;;;12.60;9.43;;;-0.80;99.90;;;;;;5032567;28;20205;-47
2024/01/17 01:25:23;;;;;;;14.40;9.77;;;-0.80;99.90;;;;;;5027916;28;20271;-46
2024/01/17 01:27:50;;;;;;;11.67;8.50;;;-0.80;99.90;;;;;;5039062;28;20225;-50
2024/01/17 01:30:18;;;;;;;14.07;10.30;;;-0.80;99.90;;;;;;5040297;28;20723;-47
2024/01/17 01:32:45;;;;;;;15.63;9.40;;;-0.70;99.90;;;;;;5013518;28;20202;-49
2024/01/17 01:35:12;;;;;;;13.83;9.90;;;-0.70;99.90;;;;;;5037609;28;20190;-45
2024/01/17 01:37:39;;;;;;;11.83;9.60;;;-0.70;99.90;;;;;;5046902;28;20197;-49
2024/01/17 01:40:08;;;;;;;15.67;9.40;;;-0.70;99.90;;;;;;5031346;28;20202;-47
2024/01/17 01:42:35;;;;;;;13.50;9.60;;;-0.70;99.90;;;;;;5048736;28;20213;-47
2024/01/17 01:45:02;;;;;;;11.03;9.30;;;-0.70;99.90;;;;;;5036716;28;20260;-45
2024/01/17 01:47:30;;;;;;;12.10;8.47;;;-0.70;99.90;;;;;;5013305;28;20237;-45
2024/01/17 01:49:58;;;;;;;12.77;8.90;;;-0.70;99.90;;;;;;5037087;28;20206;-46
2024/01/17 01:52:25;;;;;;;13.27;9.27;;;-0.70;99.90;;;;;;5041202;28;20208;-48
2024/01/17 01:54:52;;;;;;;10.33;6.63;;;-0.60;99.90;;;;;;5033951;28;20685;-46
2024/01/17 01:57:19;;;;;;;15.23;9.60;;;-0.60;99.90;;;;;;5040668;28;20195;-48
2024/01/17 01:59:47;;;;;;;12.80;8.93;;;-0.60;99.90;;;;;;5045803;28;20303;-46
2024/01/17 02:02:15;;;;;;;13.50;8.83;;;-0.60;99.90;;;;;;4985195;28;20214;-48
2024/01/17 02:04:44;;;;;;;12.37;7.83;;;-0.60;99.90;;;;;;5031239;28;20198;-47
2024/01/17 02:07:13;;;;;;;12.37;9.67;;;-0.60;99.90;;;;;;5031228;28;20211;-47
2024/01/17 02:09:44;;;;;;;11.10;8.93;;;-0.60;99.90;;;;;;5031460;28;20638;-46
2024/01/17 02:12:11;;;;;;;12.63;9.37;;;-0.60;99.90;;;;;;5026519;28;20930;-47
2024/01/17 02:14:42;;;;;;;13.97;9.70;;;-0.60;99.90;;;;;;5032055;28;20273;-48
2024/01/17 02:17:09;;;;;;;16.60;9.90;;;-0.60;99.90;;;;;;5035105;28;20196;-48
2024/01/17 02:19:38;;;;;;;9.80;7.87;;;-0.60;99.90;;;;;;5014526;28;20222;-48
2024/01/17 02:22:06;;;;;;;15.33;10.00;;;-0.70;99.90;;;;;;5021307;28;20284;-47
2024/01/17 02:24:34;;;;;;;11.70;8.80;;;-0.60;99.90;;;;;;5050203;28;20196;-48
2024/01/17 02:27:01;;;;;;;12.93;9.17;;;-0.60;99.90;;;;;;5030301;28;20296;-48
2024/01/17 02:29:28;;;;;;;13.57;9.63;;;-0.70;99.90;;;;;;5040591;28;20283;-49
2024/01/17 02:31:55;;;;;;;13.27;10.03;;;-0.70;99.90;;;;;;5019494;28;20206;-47
2024/01/17 02:34:23;;;;;;;13.87;9.03;;;-0.60;99.90;;;;;;5003556;28;20567;-47
2024/01/17 02:36:49;;;;;;;15.30;8.67;;;-0.60;99.90;;;;;;5035005;28;20548;-45
2024/01/17 02:39:16;;;;;;;14.93;8.90;;;-0.70;99.90;;;;;;5035581;28;20223;-48
2024/01/17 02:41:45;;;;;;;13.80;8.37;;;-0.70;99.90;;;;;;5029852;28;20213;-47
2024/01/17 02:44:11;;;;;;;15.20;9.43;;;-0.70;99.90;;;;;;5037011;28;20195;-48
2024/01/17 02:46:38;;;;;;;12.47;9.97;;;-0.70;99.90;;;;;;5038771;28;20229;-44
2024/01/17 02:49:05;;;;;;;13.83;9.67;;;-0.70;99.90;;;;;;5005456;28;20222;-47
2024/01/17 02:51:32;;;;;;;12.27;9.00;;;-0.70;99.90;;;;;;5038190;28;20191;-49
2024/01/17 02:53:59;;;;;;;12.90;8.47;;;-0.70;99.90;;;;;;5032122;28;20191;-47
2024/01/17 02:56:25;;;;;;;14.93;9.70;;;-0.70;99.90;;;;;;5035416;28;20213;-46
2024/01/17 02:58:54;;;;;;;12.87;10.00;;;-0.70;99.90;;;;;;5025857;28;20925;-48
2024/01/17 03:01:20;;;;;;;13.83;8.57;;;-0.70;99.90;;;;;;5036395;28;20203;-48
2024/01/17 03:03:47;;;;;;;11.97;7.90;;;-0.70;99.90;;;;;;5032743;28;20203;-48
2024/01/17 03:06:14;;;;;;;10.33;7.07;;;-0.70;99.90;;;;;;5011672;28;20218;-50
2024/01/17 03:08:41;;;;;;;11.03;7.97;;;-0.70;99.90;;;;;;5043763;28;20724;-50
2024/01/17 03:11:09;;;;;;;10.93;8.07;;;-0.70;99.90;;;;;;5032677;28;20268;-46
2024/01/17 03:13:35;;;;;;;12.80;8.83;;;-0.70;99.90;;;;;;5032690;28;20257;-50
2024/01/17 03:16:04;;;;;;;13.27;8.20;;;-0.70;99.90;;;;;;5045754;28;20199;-45
2024/01/17 03:18:31;;;;;;;10.97;8.00;;;-0.60;99.90;;;;;;5041146;28;20220;-45
2024/01/17 03:20:57;;;;;;;10.27;8.23;;;-0.70;99.90;;;;;;5005271;28;20312;-48
2024/01/17 03:23:24;;;;;;;12.23;8.23;;;-0.60;99.90;;;;;;5041107;28;20257;-47
2024/01/17 03:25:51;;;;;;;13.20;8.90;;;-0.70;99.90;;;;;;5034098;28;20254;-51
2024/01/17 03:28:18;;;;;;;10.80;6.87;;;-0.60;99.90;;;;;;5033139;28;20214;-49
2024/01/17 03:30:45;;;;;;;14.63;8.63;;;-0.70;99.90;;;;;;5035412;28;20201;-46
2024/01/17 03:33:13;;;;;;;8.67;7.23;;;-0.70;99.90;;;;;;5025864;28;20203;-47
2024/01/17 03:35:42;;;;;;;15.90;8.17;;;-0.60;99.90;;;;;;5025372;28;20203;-48
2024/01/17 03:38:08;;;;;;;12.63;9.20;;;-0.70;99.90;;;;;;5036870;28;20943;-47
2024/01/17 03:40:34;;;;;;;12.83;9.40;;;-0.70;99.90;;;;;;5033888;28;20190;-48
2024/01/17 03:43:01;;;;;;;13.50;7.23;;;-0.70;99.90;;;;;;5034844;28;20920;-51
2024/01/17 03:45:28;;;;;;;13.67;9.30;;;-0.70;99.90;;;;;;5031652;28;20267;-47
2024/01/17 03:47:56;;;;;;;10.23;8.30;;;-0.70;99.90;;;;;;5035354;28;20212;-44
2024/01/17 03:50:24;;;;;;;13.73;8.70;;;-0.80;99.90;;;;;;5039560;28;20202;-44
2024/01/17 03:52:51;;;;;;;12.80;8.07;;;-0.80;99.90;;;;;;5007371;28;20211;-51
2024/01/17 03:55:18;;;;;;;11.67;9.03;;;-0.80;99.90;;;;;;5040834;28;20198;-46
2024/01/17 03:57:45;;;;;;;16.90;9.03;;;-0.80;99.90;;;;;;5039597;28;20230;-52
2024/01/17 04:00:12;;;;;;;16.50;9.50;;;-0.80;99.90;;;;;;5029526;28;20743;-44
2024/01/17 04:02:39;;;;;;;13.17;8.37;;;-0.80;99.90;;;;;;5043614;28;20210;-49
2024/01/17 04:05:07;;;;;;;11.97;9.87;;;-0.90;99.90;;;;;;5039200;28;20980;-48
2024/01/17 04:07:35;;;;;;;12.00;8.73;;;-0.90;99.90;;;;;;5041542;28;20226;-48
2024/01/17 04:10:02;;;;;;;12.83;8.67;;;-0.90;99.90;;;;;;5019527;28;20201;-47
2024/01/17 04:12:30;;;;;;;14.10;9.43;;;-0.90;99.90;;;;;;5041972;28;20212;-43
2024/01/17 04:14:56;;;;;;;11.50;9.30;;;-1.00;99.90;;;;;;5031861;28;20207;-44
2024/01/17 04:17:23;;;;;;;16.33;9.80;;;-1.00;99.90;;;;;;5046352;28;20194;-45
2024/01/17 04:19:50;;;;;;;14.70;9.67;;;-1.00;99.90;;;;;;5040745;28;20221;-51
2024/01/17 04:22:17;;;;;;;13.47;9.30;;;-1.10;99.90;;;;;;5042960;28;20193;-48
2024/01/17 04:24:45;;;;;;;16.83;9.60;;;-1.10;99.90;;;;;;4996490;28;20225;-45
2024/01/17 04:27:12;;;;;;;12.30;8.80;;;-1.10;99.90;;;;;;5047123;28;20294;-48
2024/01/17 04:29:39;;;;;;;15.47;9.27;;;-1.10;99.90;;;;;;5040296;28;20218;-47
2024/01/17 04:32:06;;;;;;;14.70;9.47;;;-1.10;99.90;;;;;;5030237;28;20722;-50
2024/01/17 04:34:32;;;;;;;15.83;9.17;;;-1.20;99.90;;;;;;5035234;28;20195;-51
2024/01/17 04:36:59;;;;;;;15.03;9.47;;;-1.20;99.90;;;;;;5041208;28;20199;-46
2024/01/17 04:39:26;;;;;;;14.60;8.30;;;-1.20;99.90;;;;;;5020453;28;20215;-52
2024/01/17 04:41:56;;;;;;;13.33;9.57;;;-1.20;99.90;;;;;;5023487;28;20286;-45
2024/01/17 04:44:23;;;;;;;15.80;8.77;;;-1.10;99.90;;;;;;5026298;28;20202;-51
2024/01/17 04:46:50;;;;;;;14.47;9.10;;;-1.20;99.90;;;;;;5030813;28;20197;-45
2024/01/17 04:49:17;;;;;;;12.70;9.67;;;-1.20;99.90;;;;;;5039532;28;21806;-51
2024/01/17 04:51:46;;;;;;;16.03;10.23;;;-1.10;99.90;;;;;;5036626;28;20261;-45
2024/01/17 04:54:13;;;;;;;14.57;8.93;;;-1.10;99.90;;;;;;5042511;28;20202;-45
2024/01/17 04:56:41;;;;;;;10.67;8.47;;;-1.20;99.90;;;;;;5013858;28;20248;-50
2024/01/17 04:59:09;;;;;;;13.20;9.40;;;-1.20;99.90;;;;;;5031894;28;20706;-49
2024/01/17 05:01:36;;;;;;;13.67;10.03;;;-1.20;99.90;;;;;;5025180;28;20232;-49
2024/01/17 05:04:03;;;;;;;16.47;9.30;;;-1.20;99.90;;;;;;5038336;28;20207;-45
2024/01/17 05:06:32;;;;;;;14.90;8.53;;;-1.20;99.90;;;;;;5030486;28;20274;-50
2024/01/17 05:08:59;;;;;;;16.40;9.30;;;-1.20;99.90;;;;;;5035143;28;20703;-44
2024/01/17 05:11:27;;;;;;;15.00;8.93;;;-1.20;99.90;;;;;;5010700;28;20267;-49
2024/01/17 05:13:54;;;;;;;15.37;9.63;;;-1.20;99.90;;;;;;5040626;28;20211;-45
2024/01/17 05:16:22;;;;;;;14.10;9.10;;;-1.20;99.90;;;;;;5030640;28;20483;-49
2024/01/17 05:18:49;;;;;;;11.20;8.17;;;-1.20;99.90;;;;;;5032125;28;20220;-47
2024/01/17 05:21:16;;;;;;;10.63;8.60;;;-1.20;99.90;;;;;;5042804;28;20785;-49
2024/01/17 05:23:43;;;;;;;13.37;8.83;;;-1.30;99.90;;;;;;5035757;28;20429;-47
2024/01/17 05:26:10;;;;;;;11.47;8.27;;;-1.30;99.90;;;;;;5014113;28;20685;-45
2024/01/17 05:28:37;;;;;;;10.90;8.40;;;-1.20;99.90;;;;;;5017385;28;20217;-49
2024/01/17 05:31:05;;;;;;;11.03;8.87;;;-1.20;99.90;;;;;;5029160;28;20194;-47
2024/01/17 05:33:33;;;;;;;11.10;8.10;;;-1.20;99.90;;;;;;5028845;28;20209;-53
2024/01/17 05:36:00;;;;;;;14.43;8.90;;;-1.20;99.90;;;;;;5041406;28;20201;-47
2024/01/17 05:38:27;;;;;;;17.57;9.07;;;-1.20;99.90;;;;;;5028108;28;20221;-50
2024/01/17 05:40:54;;;;;;;13.93;8.97;;;-1.20;99.90;;;;;;5010223;28;20674;-47
2024/01/17 05:43:22;;;;;;;11.53;8.40;;;-1.20;99.90;;;;;;5032278;28;20780;-52
2024/01/17 05:45:50;;;;;;;12.77;8.50;;;-1.20;99.90;;;;;;5031533;28;20211;-47
2024/01/17 05:48:17;;;;;;;14.63;7.97;;;-1.20;99.90;;;;;;5032918;28;20217;-52
2024/01/17 05:50:45;;;;;;;14.40;9.20;;;-1.20;99.90;;;;;;5037159;28;20205;-51
2024/01/17 05:53:12;;;;;;;10.30;8.20;;;-1.20;99.90;;;;;;5038482;28;20216;-47
2024/01/17 05:55:39;;;;;;;16.57;9.07;;;-1.20;99.90;;;;;;5022352;28;20204;-49
2024/01/17 05:58:06;;;;;;;12.30;8.43;;;-1.10;99.90;;;;;;5006352;28;20225;-45
2024/01/17 06:00:33;;;;;;;12.30;8.40;;;-1.10;99.90;;;;;;5030557;28;20202;-54
2024/01/17 06:03:00;;;;;;;13.40;8.33;;;-1.10;99.90;;;;;;5025121;28;20202;-49
2024/01/17 06:05:26;;;;;;;13.83;8.80;;;-1.10;99.90;;;;;;5036883;28;20604;-51
2024/01/17 06:07:55;;;;;;;11.90;8.53;;;-1.10;99.90;;;;;;5038962;28;20733;-49
2024/01/17 06:10:23;;;;;;;11.60;8.53;;;-1.10;99.90;;;;;;5023621;28;20214;-46
2024/01/17 06:12:51;;;;;;;11.40;8.17;;;-1.10;99.90;;;;;;5005922;28;20336;-48
2024/01/17 06:15:18;;;;;;;18.37;7.83;;;-1.00;99.90;;;;;;5040725;28;20201;-51
2024/01/17 06:17:45;;;;;;;7.93;6.00;;;-1.00;99.90;;;;;;5022517;28;20213;-46
2024/01/17 06:20:12;;;;;;;14.00;8.17;;;-1.00;99.90;;;;;;5023624;28;20204;-48
2024/01/17 06:22:39;;;;;;;13.23;8.07;;;-1.00;99.90;;;;;;5033370;28;20223;-49
2024/01/17 06:25:09;;;;;;;12.77;7.77;;;-1.00;99.90;;;;;;5029563;28;20681;-48
2024/01/17 06:27:35;;;;;;;10.23;8.00;;;-0.90;99.90;;;;;;5037854;28;20199;-47
2024/01/17 06:30:02;;;;;;;12.53;7.80;;;-0.90;99.90;;;;;;5011376;28;20264;-48
2024/01/17 06:32:30;;;;;;;12.97;6.47;;;-0.90;99.90;;;;;;5022782;28;20207;-54
2024/01/17 06:34:57;;;;;;;13.50;8.20;;;-0.90;99.90;;;;;;5037245;28;20202;-49
2024/01/17 06:37:24;;;;;;;10.33;6.53;;;-0.80;99.90;;;;;;5031429;28;20214;-54
2024/01/17 06:39:50;;;;;;;10.40;6.73;;;-0.80;99.90;;;;;;5035462;28;20218;-47
2024/01/17 06:42:18;;;;;;;11.30;7.93;;;-0.80;99.90;;;;;;5040535;28;20198;-53
2024/01/17 06:44:46;;;;;;;11.03;7.67;;;-0.80;99.90;;;;;;5004144;28;20237;-46
2024/01/17 06:47:13;;;;;;;10.20;6.60;;;-0.70;99.90;;;;;;5040140;28;20567;-49
2024/01/17 06:49:41;;;;;;;10.33;6.33;;;-0.70;99.90;;;;;;5021561;28;20222;-49
2024/01/17 06:52:08;;;;;;;12.20;7.30;;;-0.70;99.90;;;;;;5041230;28;20194;-49
2024/01/17 06:54:35;;;;;;;10.00;7.70;;;-0.70;99.90;;;;;;5037440;28;20191;-47
2024/01/17 06:57:02;;;;;;;10.87;6.67;;;-0.70;99.90;;;;;;5029445;28;20210;-46
2024/01/17 06:59:30;;;;;;;9.10;7.00;;;-0.70;99.90;;;;;;5038760;28;20355;-53
2024/01/17 07:01:57;;;;;;;11.80;7.00;;;-0.70;99.90;;;;;;5012499;28;20218;-48
2024/01/17 07:04:24;;;;;;;7.80;5.77;;;-0.70;99.90;;;;;;5031325;28;20206;-52
2024/01/17 07:06:51;;;;;;;10.70;6.73;;;-0.70;99.90;;;;;;5043085;28;20258;-53
2024/01/17 07:09:18;;;;;;;10.00;6.93;;;-0.70;99.90;;;;;;5047188;28;20221;-53
2024/01/17 07:11:45;;;;;;;12.00;7.23;;;-0.70;99.90;;;;;;5031413;28;21691;-48
2024/01/17 07:14:11;;;;;;;7.77;5.83;;;-0.70;99.90;;;;;;5040245;28;20190;-50
2024/01/17 07:16:40;;;;;;;6.77;5.60;;;-0.70;99.90;;;;;;5004824;28;20214;-53
2024/01/17 07:19:05;;;;;;;8.37;5.77;;;-0.70;99.90;;;;;;5037799;28;20263;-46
2024/01/17 07:21:32;;;;;;;8.73;5.77;;;-0.70;99.90;;;;;;5046419;28;20186;-54
2024/01/17 07:23:59;;;;;;;10.17;5.10;;;-0.70;99.90;;;;;;5043912;28;20208;-46
2024/01/17 07:26:26;;;;;;;8.33;5.80;;;-0.70;99.90;;;;;;5033887;28;20203;-53
2024/01/17 07:28:53;;;;;;;9.70;6.07;;;-0.70;99.90;;;;;;5038052;28;20889;-48
2024/01/17 07:31:20;;;;;;;9.60;5.80;;;-0.70;99.90;;;;;;5030365;28;20598;-55
2024/01/17 07:33:48;;;;;;;7.67;5.13;;;-0.70;99.90;;;;;;5027035;28;20293;-46
2024/01/17 07:36:15;;;;;;;8.73;5.17;;;-0.70;99.90;;;;;;5036719;28;20202;-50
2024/01/17 07:38:41;;;;;;;5.60;5.00;;;-0.70;99.90;;;;;;5040453;28;20344;-47
2024/01/17 07:41:08;;;;;;;7.23;4.80;;;-0.70;99.90;;;;;;5044184;28;20319;-48
2024/01/17 07:43:35;;;;;;;11.50;4.17;;;-0.70;99.90;;;;;;5027961;28;20236;-49
2024/01/17 07:46:02;;;;;;;6.70;5.27;;;-0.70;99.90;;;;;;5045486;28;20257;-49
2024/01/17 07:48:29;;;;;;;5.97;3.50;;;-0.70;99.90;;;;;;5013321;28;20242;-54
2024/01/17 07:50:57;;;;;;;6.87;5.00;;;-0.70;99.90;;;;;;5033001;28;20192;-47
2024/01/17 07:53:26;;;;;;;8.73;4.80;;;-0.70;99.90;;;;;;5038869;28;20207;-50
2024/01/17 07:55:53;;;;;;;8.23;5.67;;;-0.70;99.90;;;;;;5040745;28;20202;-47
2024/01/17 07:58:20;;;;;;;7.90;4.70;;;-0.70;99.90;;;;;;5035145;28;20222;-54
2024/01/17 08:00:47;;;;;;;6.97;3.87;;;-0.70;99.90;;;;;;5041057;28;20187;-51
2024/01/17 08:03:15;;;;;;;7.47;4.70;;;-0.60;99.90;;;;;;5041910;28;20206;-55
2024/01/17 08:05:42;;;;;;;7.37;4.37;;;-0.60;99.90;;;;;;5009301;28;20206;-46
2024/01/17 08:08:12;;;;;;;3.33;3.03;;;-0.70;99.90;;;;;;5046643;28;20716;-46
2024/01/17 08:10:38;;;;;;;4.73;3.73;;;-0.60;99.90;;;;;;5032108;28;20845;-51
2024/01/17 08:13:05;;;;;;;9.97;5.57;;;-0.60;99.90;;;;;;5036585;28;20560;-54
2024/01/17 08:15:32;;;;;;;9.40;4.77;;;-0.60;99.90;;;;;;5039206;28;20588;-54
2024/01/17 08:17:59;;;;;;;10.17;4.63;;;-0.60;99.90;;;;;;5048514;28;20284;-48
2024/01/17 08:20:26;;;;;;;10.23;4.70;;;-0.60;99.90;;;;;;5011832;28;20234;-54
2024/01/17 08:22:53;;;;;;;6.63;2.90;;;-0.60;99.90;;;;;;5025520;28;20198;-48
2024/01/17 08:25:21;;;;;;;3.97;3.30;;;-0.60;99.90;;;;;;5037091;28;20552;-53
2024/01/17 08:27:48;;;;;;;8.67;4.37;;;-0.50;99.90;;;;;;5040286;28;20892;-48
2024/01/17 08:30:15;;;;;;;8.30;4.17;;;-0.50;99.90;;;;;;5048978;28;20206;-52
2024/01/17 08:32:42;;;;;;;7.30;4.10;;;-0.50;99.90;;;;;;5038342;28;20198;-47
2024/01/17 08:35:11;;;;;;;5.30;4.17;;;-0.50;99.90;;;;;;5015310;28;20260;-50
2024/01/17 08:37:38;;;;;;;4.40;3.73;;;-0.50;99.90;;;;;;5031210;28;20214;-47
2024/01/17 08:40:07;;;;;;;6.97;4.10;;;-0.50;99.90;;;;;;5043260;28;20282;-51
2024/01/17 08:42:35;;;;;;;8.73;3.87;;;-0.50;99.90;;;;;;5037411;28;20204;-53
2024/01/17 08:45:02;;;;;;;7.47;4.27;;;-0.50;99.90;;;;;;5051705;28;20536;-49
2024/01/17 08:47:28;;;;;;;6.43;3.90;;;-0.50;99.90;;;;;;5040942;28;20202;-53
2024/01/17 08:49:56;;;;;;;6.87;3.77;;;-0.50;99.90;;;;;;5014391;28;20213;-47
2024/01/17 08:52:23;;;;;;;8.70;4.37;;;-0.40;99.90;;;;;;5038868;28;20259;-52
2024/01/17 08:54:50;;;;;;;7.23;4.13;;;-0.40;99.90;;;;;;5036826;28;20195;-47
2024/01/17 08:57:17;;;;;;;12.03;3.93;;;-0.40;99.90;;;;;;5023921;28;20207;-50
2024/01/17 08:59:45;;;;;;;6.60;3.60;;;-0.40;99.90;;;;;;5036676;28;20206;-49
2024/01/17 09:02:12;;;;;;;6.87;3.30;;;-0.40;99.90;;;;;;5023622;28;20199;-49
2024/01/17 09:04:39;;;;;;;4.23;3.83;;;-0.40;99.90;;;;;;5037292;28;20658;-47
2024/01/17 09:07:06;;;;;;;6.30;3.50;;;-0.30;99.90;;;;;;5015850;28;20220;-50
2024/01/17 09:09:33;;;;;;;4.83;2.90;;;-0.30;99.90;;;;;;5029105;28;20226;-48
2024/01/17 09:11:59;;;;;;;6.00;3.63;;;-0.30;99.90;;;;;;5039347;28;20214;-51
2024/01/17 09:14:26;;;;;;;4.93;2.90;;;-0.30;99.90;;;;;;5041423;28;20207;-49
2024/01/17 09:16:55;;;;;;;4.80;3.17;;;-0.20;99.90;;;;;;5039362;28;20197;-52
2024/01/17 09:19:22;;;;;;;3.27;2.97;;;-0.20;99.90;;;;;;5011071;28;20226;-50
2024/01/17 09:21:49;;;;;;;3.20;2.67;;;-0.20;99.90;;;;;;5016023;28;20265;-50
2024/01/17 09:24:16;;;;;;;7.83;2.90;;;-0.20;99.90;;;;;;5021165;28;20261;-51
2024/01/17 09:26:43;;;;;;;4.57;3.00;;;-0.20;99.90;;;;;;5031765;28;20204;-50
2024/01/17 09:29:10;;;;;;;6.93;3.10;;;-0.20;99.90;;;;;;5034950;28;20211;-50
2024/01/17 09:31:37;;;;;;;3.53;2.80;;;-0.10;99.90;;;;;;5035939;28;20198;-49
2024/01/17 09:34:06;;;;;;;4.37;3.00;;;-0.10;99.90;;;;;;5029531;28;20198;-48
2024/01/17 09:36:33;;;;;;;6.43;2.80;;;0.00;99.90;;;;;;5011121;28;20679;-52
2024/01/17 09:39:00;;;;;;;4.07;2.80;;;0.00;99.90;;;;;;5038866;28;20210;-49
2024/01/17 09:41:27;;;;;;;4.67;2.97;;;0.00;99.90;;;;;;5032942;28;20974;-52
2024/01/17 09:43:56;;;;;;;3.80;3.30;;;0.00;99.90;;;;;;5025669;28;20261;-50
2024/01/17 09:46:23;;;;;;;4.13;2.77;;;0.00;99.90;;;;;;5034644;28;20206;-50
2024/01/17 09:48:50;;;;;;;6.70;3.37;;;0.00;99.90;;;;;;5042823;28;20629;-52
2024/01/17 09:51:24;;;;;;;4.33;3.03;;;0.00;99.90;;;;;;5000315;28;21618;-52
2024/01/17 09:53:53;;;;;;;4.33;2.47;;;0.10;99.90;;;;;;5043311;28;20256;-48
2024/01/17 09:56:24;;;;;;;7.13;2.90;;;0.00;99.90;;;;;;5030680;28;20199;-52
2024/01/17 09:58:54;;;;;;;6.23;3.23;;;0.10;99.90;;;;;;5038285;28;20234;-53
2024/01/17 10:01:24;;;;;;;7.77;3.17;;;0.10;99.90;;;;;;5035874;28;20191;-52
2024/01/17 10:03:54;;;;;;;5.77;3.37;;;0.10;99.90;;;;;;5039557;28;20237;-51
2024/01/17 10:06:24;;;;;;;3.80;3.00;;;0.20;99.90;;;;;;5000490;28;20358;-51
2024/01/17 10:08:51;;;;;;;6.20;3.43;;;0.10;99.90;;;;;;5042993;28;20575;-49
2024/01/17 10:11:18;;;;;;;4.27;2.80;;;0.10;99.90;;;;;;5030903;28;20351;-50
2024/01/17 10:13:45;;;;;;;5.77;3.53;;;0.10;99.90;;;;;;5042732;28;20194;-56
2024/01/17 10:16:13;;;;;;;4.80;2.53;;;0.10;99.90;;;;;;5039345;28;20302;-51
2024/01/17 10:18:40;;;;;;;5.17;3.33;;;0.20;99.90;;;;;;5030539;28;20249;-54
2024/01/17 10:21:08;;;;;;;4.13;2.50;;;0.10;99.90;;;;;;5020569;28;20759;-49
2024/01/17 10:23:38;;;;;;;5.07;3.07;;;0.10;99.90;;;;;;5008862;28;20245;-50
2024/01/17 10:26:05;;;;;;;4.13;3.27;;;0.20;99.90;;;;;;5030510;28;20209;-49
2024/01/17 10:28:33;;;;;;;6.47;3.40;;;0.20;99.90;;;;;;5044277;28;20226;-49
2024/01/17 10:31:02;;;;;;;4.77;2.60;;;0.20;99.90;;;;;;5039603;28;20721;-50
2024/01/17 10:33:29;;;;;;;4.50;3.20;;;0.20;99.90;;;;;;5041206;28;20242;-50
2024/01/17 10:35:56;;;;;;;3.73;3.30;;;0.20;99.90;;;;;;5043097;28;20557;-49
2024/01/17 10:38:23;;;;;;;5.97;2.87;;;0.20;99.90;;;;;;5013350;28;20218;-51
2024/01/17 10:41:04;;;;;;;6.70;3.37;;;0.20;99.90;;;;;;5029299;28;20215;-50
2024/01/17 10:43:30;;;;;;;5.90;3.57;;;0.30;99.90;;;;;;5040102;28;20203;-50
2024/01/17 10:45:57;;;;;;;5.73;3.53;;;0.30;99.90;;;;;;5046193;28;20351;-51
2024/01/17 10:48:24;;;;;;;5.17;3.40;;;0.30;99.90;;;;;;5043781;28;20276;-48
2024/01/17 10:50:54;;;;;;;6.03;3.23;;;0.40;99.90;;;;;;5042336;28;20253;-54
2024/01/17 10:53:22;;;;;;;7.90;3.63;;;0.40;99.90;;;;;;5011269;28;20231;-50
2024/01/17 10:55:53;;;;;;;6.77;3.50;;;0.40;99.90;;;;;;5029601;28;20311;-51
2024/01/17 10:58:22;;;;;;;7.43;3.60;;;0.40;99.90;;;;;;5041787;28;20212;-52
2024/01/17 11:00:51;;;;;;;6.00;3.40;;;0.40;99.90;;;;;;5037727;28;20187;-49
2024/01/17 11:03:20;;;;;;;8.23;3.90;;;0.40;99.90;;;;;;5039831;28;20195;-48
2024/01/17 11:05:50;;;;;;;3.97;3.07;;;0.40;99.90;;;;;;5038924;28;20195;-50
2024/01/17 11:08:18;;;;;;;5.50;3.17;;;0.40;99.90;;;;;;5039166;28;20316;-48
2024/01/17 11:10:46;;;;;;;7.63;3.70;;;0.40;99.90;;;;;;5010063;28;20850;-50
2024/01/17 11:13:17;;;;;;;4.03;3.37;;;0.40;99.90;;;;;;5032824;28;20223;-48
2024/01/17 11:15:47;;;;;;;7.80;4.00;;;0.40;99.90;;;;;;5037820;28;20187;-50
2024/01/17 11:18:15;;;;;;;5.53;3.30;;;0.40;99.90;;;;;;5041325;28;20215;-50
2024/01/17 11:20:43;;;;;;;4.63;3.00;;;0.40;99.90;;;;;;5041426;28;20841;-49
2024/01/17 11:23:23;;;;;;;5.30;3.40;;;0.40;99.90;;;;;;5041397;28;20230;-49
2024/01/17 11:25:57;;;;;;;5.57;3.93;;;0.40;99.90;;;;;;5010374;28;20204;-49
2024/01/17 11:28:27;;;;;;;4.00;3.53;;;0.40;99.90;;;;;;5033584;28;20242;-49
2024/01/17 11:31:21;;;;;;;4.17;3.30;;;0.50;99.90;;;;;;5039345;28;20376;-48
2024/01/17 11:33:49;;;;;;;4.80;3.67;;;0.50;99.90;;;;;;5037006;28;20202;-47
2024/01/17 11:36:42;;;;;;;5.27;3.73;;;0.60;99.90;;;;;;5040414;28;20273;-50
2024/01/17 11:39:11;;;;;;;5.13;3.80;;;0.50;99.90;;;;;;5034574;28;20246;-50
2024/01/17 11:41:38;;;;;;;7.30;4.27;;;0.50;99.90;;;;;;5011307;28;20199;-49
2024/01/17 11:44:07;;;;;;;8.87;4.30;;;0.50;99.90;;;;;;5032147;28;20226;-51
2024/01/17 11:46:35;;;;;;;5.70;3.80;;;0.50;99.90;;;;;;5037446;28;20200;-50
2024/01/17 11:49:04;;;;;;;5.97;3.53;;;0.50;99.90;;;;;;5040886;28;20216;-53
2024/01/17 11:51:33;;;;;;;4.60;3.43;;;0.50;99.90;;;;;;5035839;28;20211;-50
2024/01/17 11:54:03;;;;;;;8.60;3.70;;;0.50;99.90;;;;;;5044694;28;20272;-48
2024/01/17 11:56:30;;;;;;;5.60;4.00;;;0.50;99.90;;;;;;5010814;28;20207;-50
2024/01/17 11:59:04;;;;;;;7.80;3.73;;;0.50;99.90;;;;;;5036083;28;20698;-53
2024/01/17 12:01:43;;;;;;;8.73;4.40;;;0.50;99.90;;;;;;5045552;28;20206;-49
2024/01/17 12:04:14;;;;;;;7.40;3.80;;;0.40;99.90;;;;;;5046966;28;20198;-51
2024/01/17 12:06:42;;;;;;;9.40;4.67;;;0.40;99.90;;;;;;5015579;28;20211;-48
2024/01/17 12:09:17;;;;;;;11.13;3.83;;;0.40;99.90;;;;;;5038544;28;20205;-50
2024/01/17 12:11:48;;;;;;;7.57;4.30;;;0.40;99.90;;;;;;5010019;28;20211;-47
2024/01/17 12:14:15;;;;;;;15.00;9.30;;;0.40;99.90;;;;;;5038435;28;20245;-49
2024/01/17 12:16:44;;;;;;;7.60;4.03;;;0.50;99.90;;;;;;5041893;28;20656;-48
2024/01/17 12:19:12;;;;;;;7.57;4.33;;;0.50;99.90;;;;;;5041741;28;20273;-51
2024/01/17 12:21:39;;;;;;;4.27;3.30;;;0.60;99.90;;;;;;5038327;28;20205;-47
2024/01/17 12:24:11;;;;;;;5.47;4.20;;;0.50;99.90;;;;;;5039361;28;20184;-49
2024/01/17 12:26:38;;;;;;;5.33;3.67;;;0.50;99.90;;;;;;5030216;28;20194;-48
2024/01/17 12:29:09;;;;;;;5.50;3.60;;;0.50;99.90;;;;;;5022686;28;20294;-50
2024/01/17 12:31:37;;;;;;;7.13;3.63;;;0.50;99.90;;;;;;5024142;28;20211;-49
2024/01/17 12:34:06;;;;;;;6.90;4.10;;;0.50;99.90;;;;;;5037998;28;20198;-51
2024/01/17 12:36:35;;;;;;;5.00;3.60;;;0.50;99.90;;;;;;5041641;28;20536;-51
2024/01/17 12:39:03;;;;;;;5.90;3.63;;;0.50;99.90;;;;;;5041747;28;20229;-49
2024/01/17 12:41:30;;;;;;;4.90;3.90;;;0.50;99.90;;;;;;5037254;28;20658;-50
2024/01/17 12:43:58;;;;;;;7.67;4.17;;;0.50;99.90;;;;;;5016145;28;20191;-50
2024/01/17 12:46:25;;;;;;;6.37;4.10;;;0.50;99.90;;;;;;5032243;28;20679;-52